Time;durP1;ratioP1;P1;durP2;ratioP2;P2;SDS_P1;SDS_P2;PMS_P1;PMS_P2;Temp;Humidity;BMP_temperature;BMP_pressure;BME280_temperature;BME280_humidity;BME280_pressure;Samples;Min_cycle;Max_cycle;Signal;HPM_P1;HPM_P2
2023/01/04 00:00:42;;;;;;;5.00;0.50;;;;;;;5.42;53.50;101688.00;4966238;28;20511;-64
2023/01/04 00:03:08;;;;;;;3.17;0.50;;;;;;;5.12;54.19;101689.00;4973252;28;20038;-63
2023/01/04 00:05:34;;;;;;;5.65;0.50;;;;;;;5.32;53.51;101683.72;4972778;28;20043;-64
2023/01/04 00:07:59;;;;;;;3.70;0.75;;;;;;;4.85;54.46;101670.06;4962981;28;20092;-64
2023/01/04 00:10:25;;;;;;;7.00;0.50;;;;;;;4.86;54.97;101665.78;4962339;28;20445;-64
2023/01/04 00:12:50;;;;;;;11.05;0.55;;;;;;;5.18;54.07;101669.13;4945732;28;20443;-64
2023/01/04 00:15:16;;;;;;;4.63;0.50;;;;;;;4.77;55.01;101645.94;4958384;28;20125;-64
2023/01/04 00:17:42;;;;;;;3.45;0.68;;;;;;;5.16;53.56;101644.94;4966255;28;20423;-64
2023/01/04 00:20:09;;;;;;;6.07;0.60;;;;;;;4.70;54.84;101623.50;4964632;28;20500;-64
2023/01/04 00:22:34;;;;;;;4.22;1.02;;;;;;;5.16;53.47;101626.78;4975406;28;20026;-64
2023/01/04 00:25:00;;;;;;;2.22;0.80;;;;;;;5.25;53.45;101618.97;4959373;28;20436;-65
2023/01/04 00:27:25;;;;;;;5.07;0.98;;;;;;;5.19;53.76;101616.44;4964277;28;20041;-65
2023/01/04 00:29:51;;;;;;;2.28;0.50;;;;;;;5.21;53.68;101598.25;4963976;28;20923;-66
2023/01/04 00:32:16;;;;;;;9.63;0.70;;;;;;;5.02;54.42;101600.09;4962134;28;20495;-67
2023/01/04 00:34:42;;;;;;;6.43;0.90;;;;;;;5.13;54.08;101587.94;4958618;28;20039;-67
2023/01/04 00:37:07;;;;;;;1.80;0.73;;;;;;;4.68;55.34;101576.91;4960539;28;20034;-67
2023/01/04 00:39:33;;;;;;;4.32;0.50;;;;;;;5.11;53.89;101584.50;4963465;28;20404;-65
2023/01/04 00:42:03;;;;;;;6.90;1.25;;;;;;;5.29;53.55;101573.16;4960912;28;20500;-65
2023/01/04 00:44:32;;;;;;;5.45;0.73;;;;;;;5.26;53.67;101565.41;4956300;28;20554;-69
2023/01/04 00:46:59;;;;;;;1.40;0.35;;;;;;;5.34;53.76;101560.16;4960667;28;20100;-71
2023/01/04 00:49:25;;;;;;;5.90;1.75;;;;;;;5.21;53.39;101554.19;4962403;28;20567;-72
2023/01/04 00:51:51;;;;;;;1.27;0.60;;;;;;;5.37;53.20;101545.47;4961616;28;20472;-71
2023/01/04 00:54:17;;;;;;;2.45;1.00;;;;;;;5.09;54.15;101537.00;4962170;28;20127;-71
2023/01/04 00:56:43;;;;;;;3.22;0.52;;;;;;;4.75;54.66;101531.13;4960583;28;20063;-64
2023/01/04 00:59:11;;;;;;;7.97;1.13;;;;;;;5.47;53.34;101538.47;4966245;28;20962;-63
2023/01/04 01:01:39;;;;;;;1.05;0.70;;;;;;;5.39;53.50;101533.34;4965594;28;20512;-63
2023/01/04 01:04:04;;;;;;;6.05;0.70;;;;;;;5.35;53.77;101521.28;4964421;28;20316;-64
2023/01/04 01:06:32;;;;;;;4.20;0.93;;;;;;;5.20;53.61;101516.19;4963070;28;20500;-64
2023/01/04 01:08:57;;;;;;;3.75;0.60;;;;;;;5.07;54.57;101510.25;4961992;28;20508;-64
2023/01/04 01:11:23;;;;;;;2.17;0.98;;;;;;;5.80;52.22;101502.72;4962900;28;20100;-66
2023/01/04 01:13:50;;;;;;;1.30;0.50;;;;;;;4.93;54.45;101483.56;4959932;28;20047;-64
2023/01/04 01:16:17;;;;;;;5.32;0.80;;;;;;;5.13;54.46;101492.06;4969645;28;20320;-64
2023/01/04 01:18:44;;;;;;;2.13;0.65;;;;;;;4.75;54.84;101485.38;4967614;28;20140;-64
2023/01/04 01:21:13;;;;;;;3.78;0.50;;;;;;;5.59;52.92;101478.72;4964756;28;20530;-63
2023/01/04 01:23:38;;;;;;;2.90;0.40;;;;;;;5.53;53.07;101472.75;4963284;28;20040;-63
2023/01/04 01:26:06;;;;;;;4.65;1.00;;;;;;;5.33;53.50;101473.75;4963674;28;20479;-65
2023/01/04 01:28:34;;;;;;;5.30;0.40;;;;;;;5.49;52.84;101461.53;4964999;28;20988;-64
2023/01/04 01:31:05;;;;;;;1.90;0.80;;;;;;;5.90;52.37;101456.78;4966715;28;20658;-63
2023/01/04 01:33:44;;;;;;;3.93;0.73;;;;;;;5.44;53.25;101460.72;4975450;28;20034;-63
2023/01/04 01:36:11;;;;;;;3.28;0.40;;;;;;;5.46;53.29;101446.00;4961464;28;20484;-64
2023/01/04 01:38:37;;;;;;;5.78;0.90;;;;;;;4.91;55.18;101433.50;4963147;28;20059;-63
2023/01/04 01:41:04;;;;;;;7.28;0.82;;;;;;;5.07;55.05;101440.28;4967587;28;20053;-64
2023/01/04 01:44:02;;;;;;;3.25;0.70;;;;;;;5.59;53.70;101426.88;4958458;28;20399;-63
2023/01/04 01:46:31;;;;;;;2.72;1.02;;;;;;;5.33;54.41;101415.88;4958384;28;20513;-62
2023/01/04 01:49:22;;;;;;;7.80;0.55;;;;;;;5.35;54.66;101411.56;4962590;28;20715;-64
2023/01/04 01:51:49;;;;;;;4.90;1.20;;;;;;;5.48;54.77;101404.50;4960955;28;20038;-64
2023/01/04 01:54:20;;;;;;;4.35;0.57;;;;;;;5.34;55.17;101407.22;4968296;28;20793;-64
2023/01/04 01:56:49;;;;;;;5.10;1.08;;;;;;;4.90;57.12;101393.81;4960951;28;20388;-64
2023/01/04 01:59:16;;;;;;;3.95;1.02;;;;;;;4.41;58.60;101400.13;4964501;28;20077;-63
2023/01/04 02:01:41;;;;;;;6.80;1.02;;;;;;;4.57;58.73;101389.69;4969317;28;20554;-64
2023/01/04 02:04:08;;;;;;;3.70;0.85;;;;;;;4.74;58.69;101385.22;4963683;28;20050;-63
2023/01/04 02:06:38;;;;;;;2.40;0.98;;;;;;;4.96;57.99;101377.34;4961868;28;20054;-64
2023/01/04 02:09:03;;;;;;;8.50;1.13;;;;;;;4.97;57.66;101373.88;4968262;28;20566;-63
2023/01/04 02:11:29;;;;;;;8.45;0.73;;;;;;;4.86;58.15;101370.50;4971291;28;20130;-63
2023/01/04 02:16:59;;;;;;;2.85;0.80;;;;;;;4.28;59.48;101354.50;4963844;28;20918;-63
2023/01/04 02:19:44;;;;;;;4.57;1.00;;;;;;;4.62;58.91;101356.84;4967359;28;20073;-62
2023/01/04 02:22:18;;;;;;;6.07;0.98;;;;;;;4.78;58.33;101350.66;4967691;28;20038;-63
2023/01/04 02:25:14;;;;;;;12.63;1.65;;;;;;;4.83;58.73;101340.28;4962516;28;20089;-63
2023/01/04 02:27:42;;;;;;;3.38;0.52;;;;;;;5.11;57.95;101320.19;4965349;28;20494;-69
2023/01/04 02:30:26;;;;;;;2.65;0.70;;;;;;;4.57;59.27;101315.47;4966926;28;20066;-68
2023/01/04 02:33:03;;;;;;;2.35;1.10;;;;;;;4.60;59.58;101306.81;4962847;28;20061;-63
2023/01/04 02:35:45;;;;;;;3.97;1.50;;;;;;;4.60;59.86;101301.63;4960687;28;20046;-64
2023/01/04 02:38:51;;;;;;;6.75;1.08;;;;;;;4.63;60.25;101286.06;4965715;28;20558;-63
2023/01/04 02:41:20;;;;;;;6.15;0.90;;;;;;;4.33;61.41;101282.84;5000228;28;20041;-67
2023/01/04 02:46:52;;;;;;;7.43;1.08;;;;;;;4.86;60.05;101251.34;4980899;28;20100;-67
2023/01/04 02:52:01;;;;;;;3.50;0.80;;;;;;;4.65;60.83;101237.72;4984736;28;20045;-65
2023/01/04 02:54:31;;;;;;;3.45;1.45;;;;;;;4.50;61.69;101222.31;4982024;28;20034;-66
2023/01/04 02:57:05;;;;;;;2.58;0.85;;;;;;;4.46;62.02;101216.31;4980299;28;20049;-65
2023/01/04 02:59:31;;;;;;;1.60;0.80;;;;;;;4.31;62.70;101212.13;4980077;28;20081;-69
2023/01/04 03:06:14;;;;;;;2.75;0.68;;;;;;;4.05;63.61;101196.84;4981033;28;20392;-69
2023/01/04 03:08:33;;;;;;;3.40;0.77;;;;;;;4.21;63.50;101195.00;4987205;28;20140;-65
2023/01/04 03:12:30;;;;;;;2.10;1.15;;;;;;;4.33;62.89;101168.13;4979766;28;20046;-65
2023/01/04 03:13:59;;;;;;;3.03;0.85;;;;;;;4.46;62.94;101161.13;4981806;28;20128;-65
2023/01/04 03:16:25;;;;;;;3.72;1.52;;;;;;;4.49;63.07;101166.25;4982414;28;20049;-65
2023/01/04 03:18:55;;;;;;;2.20;0.70;;;;;;;4.43;63.39;101149.94;4982717;28;20034;-65
2023/01/04 03:21:24;;;;;;;2.72;0.93;;;;;;;4.71;62.69;101159.13;4981138;28;20208;-65
2023/01/04 03:35:37;;;;;;;1.40;0.85;;;;;;;4.24;64.84;101139.75;4982279;28;20033;-66
2023/01/04 03:49:49;;;;;;;1.58;0.50;;;;;;;4.67;63.67;101096.16;4980820;28;20053;-66
2023/01/04 03:52:16;;;;;;;1.00;0.50;;;;;;;4.29;65.23;101076.72;4980278;28;20049;-67
2023/01/04 03:54:47;;;;;;;1.60;0.52;;;;;;;4.08;66.07;101084.72;4980797;28;20192;-65
2023/01/04 03:57:13;;;;;;;2.13;0.60;;;;;;;4.35;65.10;101066.31;4984209;28;20053;-68
2023/01/04 03:59:47;;;;;;;4.20;0.63;;;;;;;4.66;63.94;101053.03;4982082;28;20279;-65
2023/01/04 04:02:13;;;;;;;1.10;0.57;;;;;;;4.40;65.03;101064.53;4989743;28;20843;-66
2023/01/04 04:10:10;;;;;;;2.35;0.30;;;;;;;4.96;63.16;101066.47;4964860;28;20518;-68
2023/01/04 04:12:35;;;;;;;2.55;0.40;;;;;;;4.05;66.05;101012.31;4982380;28;20046;-68
2023/01/04 04:15:01;;;;;;;1.20;0.20;;;;;;;4.68;64.55;101045.25;4979623;28;20041;-67
2023/01/04 04:17:26;;;;;;;0.63;0.28;;;;;;;4.34;65.83;101043.91;4981287;28;20069;-68
2023/01/04 04:19:52;;;;;;;0.85;0.10;;;;;;;4.39;65.79;101043.88;4984226;28;21271;-66
2023/01/04 04:22:17;;;;;;;1.50;0.30;;;;;;;4.60;64.67;101025.47;4981818;28;20053;-65
2023/01/04 04:24:42;;;;;;;0.65;0.25;;;;;;;4.25;66.56;101022.44;4979052;28;20095;-64
2023/01/04 04:27:08;;;;;;;0.28;0.10;;;;;;;4.59;65.18;101020.31;4982416;28;20041;-66
2023/01/04 04:29:33;;;;;;;2.22;0.40;;;;;;;4.77;64.91;101004.53;4979933;28;22316;-65
2023/01/04 04:31:59;;;;;;;0.32;0.10;;;;;;;4.82;65.00;101002.72;4979124;28;20703;-67
2023/01/04 04:34:25;;;;;;;0.63;0.10;;;;;;;4.96;64.04;101002.56;4983243;28;20499;-66
2023/01/04 04:36:50;;;;;;;2.92;0.20;;;;;;;4.76;65.18;100986.44;4983970;28;20046;-67
2023/01/04 04:39:16;;;;;;;0.30;0.10;;;;;;;4.43;66.16;100979.09;4972869;28;20140;-67
2023/01/04 04:41:41;;;;;;;0.70;0.20;;;;;;;5.21;63.89;100992.72;4988071;28;20502;-67
2023/01/04 04:44:16;;;;;;;1.52;0.22;;;;;;;4.78;65.42;100990.69;4989644;28;20562;-67
2023/01/04 04:46:43;;;;;;;1.35;0.30;;;;;;;5.01;64.69;100972.28;4984536;28;20038;-68
2023/01/04 04:49:10;;;;;;;0.70;0.20;;;;;;;5.15;64.78;100969.47;4984185;28;20570;-68
2023/01/04 04:51:36;;;;;;;1.60;0.50;;;;;;;4.97;64.72;100965.44;4982558;28;20136;-66
2023/01/04 04:54:03;;;;;;;1.90;0.20;;;;;;;4.80;65.75;100965.66;4986329;28;20542;-68
2023/01/04 04:56:28;;;;;;;0.98;0.45;;;;;;;5.63;63.01;100953.13;4992687;28;20072;-69
2023/01/04 04:58:54;;;;;;;0.75;0.10;;;;;;;5.02;65.41;100957.59;4988217;28;20043;-68
2023/01/04 05:01:20;;;;;;;0.40;0.20;;;;;;;5.17;64.65;100941.81;4987236;28;20833;-68
2023/01/04 05:03:45;;;;;;;0.38;0.13;;;;;;;4.93;65.28;100926.66;4982572;28;20034;-68
2023/01/04 05:06:11;;;;;;;1.75;0.30;;;;;;;5.14;65.22;100941.84;4984742;28;20495;-67
2023/01/04 05:08:36;;;;;;;2.92;0.30;;;;;;;5.45;64.33;100933.56;4982819;28;20742;-68
2023/01/04 05:11:09;;;;;;;0.70;0.22;;;;;;;5.16;65.04;100927.13;4985550;28;20035;-66
2023/01/04 05:13:35;;;;;;;1.55;0.20;;;;;;;5.01;66.30;100924.78;4997419;28;20046;-67
2023/01/04 05:16:02;;;;;;;0.52;0.10;;;;;;;5.53;64.68;100923.91;4972752;28;20038;-67
2023/01/04 05:18:28;;;;;;;0.93;0.35;;;;;;;5.24;65.80;100933.06;4982489;28;20037;-67
2023/01/04 05:20:53;;;;;;;0.57;0.20;;;;;;;5.18;66.35;100930.56;4984711;28;20407;-68
2023/01/04 05:23:20;;;;;;;1.55;0.20;;;;;;;4.91;67.06;100925.81;4971964;28;20038;-70
2023/01/04 05:25:58;;;;;;;1.85;0.28;;;;;;;5.58;65.12;100929.88;4981958;28;20181;-67
2023/01/04 05:28:24;;;;;;;0.60;0.20;;;;;;;5.81;64.63;100931.16;4984657;28;20313;-67
2023/01/04 05:30:52;;;;;;;0.60;0.20;;;;;;;5.80;64.56;100930.31;4984195;28;20941;-66
2023/01/04 05:33:29;;;;;;;0.90;0.20;;;;;;;5.36;66.49;100929.38;4982616;28;20677;-68
2023/01/04 05:35:56;;;;;;;0.50;0.20;;;;;;;5.56;66.24;100923.84;4982638;28;20153;-66
2023/01/04 05:38:22;;;;;;;0.98;0.47;;;;;;;5.52;66.04;100931.72;4982917;28;20065;-65
2023/01/04 05:40:49;;;;;;;1.27;0.30;;;;;;;5.83;64.59;100906.91;4964927;28;20038;-66
2023/01/04 05:43:15;;;;;;;1.95;0.20;;;;;;;5.67;66.11;100918.47;4982972;28;20034;-66
2023/01/04 05:45:50;;;;;;;2.85;0.47;;;;;;;5.75;65.39;100944.25;4982839;28;20050;-65
2023/01/04 05:48:16;;;;;;;1.15;0.30;;;;;;;5.85;65.45;100919.84;4981437;28;20042;-65
2023/01/04 05:50:42;;;;;;;0.65;0.30;;;;;;;5.76;66.14;100914.84;4981920;28;20039;-65
2023/01/04 05:53:09;;;;;;;0.90;0.20;;;;;;;5.50;66.82;100910.97;4987690;28;20479;-65
2023/01/04 05:55:34;;;;;;;2.50;0.35;;;;;;;6.02;64.89;100906.56;4982265;28;20503;-72
2023/01/04 05:57:59;;;;;;;3.88;0.20;;;;;;;5.98;65.19;100902.31;4981252;28;20057;-71
2023/01/04 06:00:25;;;;;;;1.33;0.30;;;;;;;5.69;66.20;100897.69;4976178;28;20042;-73
2023/01/04 06:02:51;;;;;;;1.25;0.20;;;;;;;5.69;66.09;100888.19;4968578;28;20058;-73
2023/01/04 06:05:17;;;;;;;0.50;0.20;;;;;;;5.84;66.23;100892.22;4964644;28;20049;-72
2023/01/04 06:07:43;;;;;;;0.82;0.20;;;;;;;5.73;66.62;100882.06;4982043;28;20038;-76
2023/01/04 06:10:11;;;;;;;0.77;0.10;;;;;;;5.83;66.61;100887.91;4983289;28;20562;-76
2023/01/04 06:12:38;;;;;;;0.38;0.10;;;;;;;6.08;65.85;100876.16;4983721;28;20430;-76
2023/01/04 06:15:04;;;;;;;0.47;0.17;;;;;;;6.06;65.42;100883.09;4984409;28;20045;-75
2023/01/04 06:17:30;;;;;;;0.70;0.20;;;;;;;6.45;64.60;100870.16;4983407;28;20037;-66
2023/01/04 06:19:55;;;;;;;0.63;0.10;;;;;;;6.73;63.91;100879.94;4985866;28;20065;-66
2023/01/04 06:22:21;;;;;;;0.70;0.20;;;;;;;5.92;66.53;100877.34;4988469;28;20038;-65
2023/01/04 06:24:47;;;;;;;0.40;0.20;;;;;;;6.50;64.80;100867.47;4979610;28;20044;-66
2023/01/04 06:27:12;;;;;;;0.60;0.15;;;;;;;6.58;64.25;100849.97;4987308;28;20733;-66
2023/01/04 06:29:38;;;;;;;0.60;0.28;;;;;;;5.97;66.88;100851.28;4986268;28;20061;-66
2023/01/04 06:32:03;;;;;;;2.10;0.40;;;;;;;5.96;66.67;100858.22;4984650;28;20538;-66
2023/01/04 06:34:29;;;;;;;1.27;0.45;;;;;;;5.81;67.51;100850.75;4984344;28;20046;-66
2023/01/04 06:36:54;;;;;;;1.10;0.30;;;;;;;6.45;64.79;100843.34;4984176;28;20119;-64
2023/01/04 06:39:19;;;;;;;0.98;0.40;;;;;;;6.74;64.86;100845.25;4998456;28;20534;-62
2023/01/04 06:41:45;;;;;;;1.92;0.75;;;;;;;6.37;65.82;100842.66;4984464;28;20041;-62
2023/01/04 06:44:10;;;;;;;1.17;0.50;;;;;;;6.73;64.90;100861.75;4984069;28;20523;-62
2023/01/04 06:46:36;;;;;;;1.75;0.55;;;;;;;6.55;65.60;100854.38;4986862;28;20038;-67
2023/01/04 06:49:01;;;;;;;1.40;0.70;;;;;;;6.61;65.48;100855.06;4986687;28;20478;-67
2023/01/04 06:51:27;;;;;;;1.85;0.50;;;;;;;6.62;65.99;100868.91;4979648;28;21070;-64
2023/01/04 06:53:52;;;;;;;1.30;0.40;;;;;;;6.62;65.53;100861.13;4967046;28;20546;-65
2023/01/04 06:56:18;;;;;;;0.82;0.38;;;;;;;6.12;67.81;100860.50;4986452;28;20809;-64
2023/01/04 06:58:43;;;;;;;1.08;0.38;;;;;;;6.30;67.22;100860.13;4976565;28;20399;-65
2023/01/04 07:01:09;;;;;;;0.80;0.40;;;;;;;6.29;67.24;100861.03;4983084;28;20069;-66
2023/01/04 07:03:35;;;;;;;0.43;0.20;;;;;;;6.89;65.38;100852.69;4975818;28;20399;-65
2023/01/04 07:06:05;;;;;;;1.85;0.20;;;;;;;6.80;65.98;100839.91;4980455;28;20123;-64
2023/01/04 07:08:32;;;;;;;0.70;0.25;;;;;;;6.72;65.91;100852.22;4991701;28;20049;-64
2023/01/04 07:10:57;;;;;;;0.80;0.60;;;;;;;6.77;66.10;100839.97;4983933;28;20460;-64
2023/01/04 07:13:23;;;;;;;1.73;0.30;;;;;;;6.94;65.72;100851.72;4979729;28;20165;-64
2023/01/04 07:15:49;;;;;;;0.93;0.32;;;;;;;6.70;66.37;100835.81;4982669;28;20034;-64
2023/01/04 07:18:14;;;;;;;0.93;0.40;;;;;;;6.47;66.71;100819.06;4985619;28;20050;-64
2023/01/04 07:20:40;;;;;;;1.85;0.30;;;;;;;6.94;65.51;100836.13;4986221;28;20121;-64
2023/01/04 07:23:07;;;;;;;3.78;0.28;;;;;;;7.16;65.14;100831.22;4980936;28;20039;-64
2023/01/04 07:25:33;;;;;;;0.95;0.20;;;;;;;6.85;66.07;100845.84;4978173;28;20078;-64
2023/01/04 07:27:58;;;;;;;3.88;0.25;;;;;;;6.69;66.38;100822.00;4965405;28;20087;-66
2023/01/04 07:30:24;;;;;;;2.28;0.47;;;;;;;6.97;66.11;100825.63;4981902;28;20086;-72
2023/01/04 07:32:52;;;;;;;1.27;0.73;;;;;;;6.80;65.68;100811.34;4981151;28;20037;-67
2023/01/04 07:35:18;;;;;;;1.58;0.50;;;;;;;6.97;65.69;100831.69;4991445;28;20422;-67
2023/01/04 07:37:44;;;;;;;2.33;0.40;;;;;;;6.91;65.82;100811.06;4980800;28;20036;-67
2023/01/04 07:40:10;;;;;;;1.10;0.40;;;;;;;6.72;66.89;100813.25;4981746;28;20038;-65
2023/01/04 07:42:36;;;;;;;1.17;0.52;;;;;;;6.61;66.93;100812.69;4987864;28;20061;-66
2023/01/04 07:45:05;;;;;;;2.17;0.80;;;;;;;6.96;65.60;100821.34;4987262;28;20045;-65
2023/01/04 07:47:31;;;;;;;4.45;1.13;;;;;;;6.55;67.48;100800.72;4984067;28;20303;-65
2023/01/04 07:49:57;;;;;;;1.85;0.63;;;;;;;6.96;66.39;100822.19;4994198;28;20414;-64
2023/01/04 07:52:23;;;;;;;1.02;0.57;;;;;;;6.72;66.57;100815.88;4985698;28;20100;-64
2023/01/04 07:54:48;;;;;;;1.67;0.60;;;;;;;6.83;66.30;100813.84;4981271;28;20645;-67
2023/01/04 07:57:14;;;;;;;2.70;0.90;;;;;;;6.91;66.63;100816.28;4980924;28;20046;-71
2023/01/04 07:59:40;;;;;;;6.25;1.10;;;;;;;7.22;65.92;100826.72;4983068;28;20038;-66
2023/01/04 08:02:06;;;;;;;3.33;1.23;;;;;;;6.94;66.53;100815.34;4984390;28;20065;-66
2023/01/04 08:04:31;;;;;;;2.42;0.73;;;;;;;6.69;66.86;100806.41;4994026;28;20034;-65
2023/01/04 08:06:56;;;;;;;2.83;1.38;;;;;;;7.02;66.48;100818.56;4980236;28;20069;-66
2023/01/04 08:09:22;;;;;;;2.42;0.55;;;;;;;6.99;66.57;100818.66;4981274;28;20747;-66
2023/01/04 08:11:47;;;;;;;4.03;0.85;;;;;;;7.06;66.21;100807.19;4977195;28;20915;-66
2023/01/04 08:14:13;;;;;;;2.05;0.35;;;;;;;6.87;66.97;100804.25;4979777;28;20081;-66
2023/01/04 08:16:40;;;;;;;4.53;0.85;;;;;;;7.29;66.02;100822.19;4979038;28;20062;-66
2023/01/04 08:19:14;;;;;;;3.55;1.17;;;;;;;7.04;66.35;100811.59;4981013;28;20066;-66
2023/01/04 08:21:41;;;;;;;4.05;1.38;;;;;;;7.31;65.78;100815.19;4982303;28;20232;-67
2023/01/04 08:24:08;;;;;;;3.70;0.98;;;;;;;7.26;65.73;100798.88;4984598;28;20470;-66
2023/01/04 08:26:33;;;;;;;1.60;0.52;;;;;;;7.32;65.39;100811.72;4984610;28;20070;-68
2023/01/04 08:28:58;;;;;;;1.00;0.50;;;;;;;7.25;65.83;100816.22;4974433;28;20188;-66
2023/01/04 08:31:27;;;;;;;1.10;0.30;;;;;;;7.74;64.29;100808.84;4985308;28;20912;-66
2023/01/04 08:33:54;;;;;;;0.93;0.30;;;;;;;7.16;66.19;100805.22;4978709;28;20092;-67
2023/01/04 08:36:25;;;;;;;0.90;0.30;;;;;;;7.59;65.02;100810.13;4985200;28;20185;-66
2023/01/04 08:38:57;;;;;;;1.50;0.20;;;;;;;6.57;68.03;100808.44;4988352;28;20046;-67
2023/01/04 08:41:22;;;;;;;0.45;0.10;;;;;;;7.29;66.07;100812.66;4980951;28;20120;-66
2023/01/04 08:43:48;;;;;;;0.50;0.13;;;;;;;7.65;64.63;100815.16;4980036;28;20658;-65
2023/01/04 08:46:14;;;;;;;0.22;0.10;;;;;;;7.06;66.99;100810.66;4982539;28;20057;-66
2023/01/04 08:48:40;;;;;;;0.77;0.20;;;;;;;7.43;65.67;100809.66;4976607;28;20815;-66
2023/01/04 08:51:12;;;;;;;0.88;0.30;;;;;;;7.25;65.95;100812.78;4969482;28;20039;-66
2023/01/04 08:53:38;;;;;;;0.52;0.10;;;;;;;7.02;66.85;100821.16;4957199;28;20133;-67
2023/01/04 08:56:04;;;;;;;0.40;0.10;;;;;;;7.47;65.54;100810.44;4957593;28;20046;-66
2023/01/04 08:58:30;;;;;;;0.35;0.10;;;;;;;7.28;66.11;100805.72;4956518;28;20057;-65
2023/01/04 09:01:01;;;;;;;0.65;0.30;;;;;;;7.54;65.68;100801.56;4958179;28;20050;-65
2023/01/04 09:03:27;;;;;;;0.50;0.10;;;;;;;7.19;66.41;100802.53;4961638;28;20619;-65
2023/01/04 09:05:52;;;;;;;0.95;0.20;;;;;;;7.24;66.63;100804.09;4957929;28;20515;-65
2023/01/04 09:08:18;;;;;;;1.08;0.30;;;;;;;7.09;66.93;100805.38;4960137;28;20255;-64
2023/01/04 09:10:43;;;;;;;0.47;0.10;;;;;;;7.48;65.74;100809.53;4957075;28;20073;-65
2023/01/04 09:13:08;;;;;;;0.98;0.20;;;;;;;7.47;65.74;100805.25;4957847;28;20488;-65
2023/01/04 09:15:34;;;;;;;1.70;0.10;;;;;;;7.25;65.90;100795.44;4956865;28;20089;-65
2023/01/04 09:18:00;;;;;;;0.30;0.10;;;;;;;7.74;64.89;100788.88;4958988;28;20046;-64
2023/01/04 09:20:26;;;;;;;0.35;0.10;;;;;;;7.29;66.12;100799.66;4945665;28;20038;-65
2023/01/04 09:22:51;;;;;;;0.52;0.10;;;;;;;7.04;66.78;100785.59;4960600;28;20117;-65
2023/01/04 09:25:17;;;;;;;0.52;0.10;;;;;;;7.54;65.39;100791.16;4963667;28;20286;-64
2023/01/04 09:27:43;;;;;;;0.47;0.10;;;;;;;7.59;65.42;100791.06;4963148;28;20439;-64
2023/01/04 09:30:09;;;;;;;0.40;0.10;;;;;;;7.53;65.40;100795.53;4959740;28;20784;-65
2023/01/04 09:32:34;;;;;;;0.50;0.10;;;;;;;6.90;67.38;100786.81;4961958;28;20491;-64
2023/01/04 09:35:00;;;;;;;0.43;0.10;;;;;;;7.37;66.08;100789.03;4966773;28;20046;-65
2023/01/04 09:37:25;;;;;;;0.35;0.05;;;;;;;7.29;66.97;100791.84;4962342;28;20042;-63
2023/01/04 09:39:51;;;;;;;0.35;0.20;;;;;;;7.19;67.16;100785.19;4960042;28;20085;-65
2023/01/04 09:42:20;;;;;;;1.02;0.20;;;;;;;7.30;66.87;100783.13;4964555;28;20065;-65
2023/01/04 09:44:50;;;;;;;0.98;0.20;;;;;;;7.11;67.45;100795.81;4959864;28;20043;-64
2023/01/04 09:47:21;;;;;;;0.20;0.10;;;;;;;7.01;67.96;100788.28;4963880;28;20903;-65
2023/01/04 09:49:55;;;;;;;0.47;0.10;;;;;;;7.43;66.52;100795.81;4959551;28;20065;-65
2023/01/04 09:52:37;;;;;;;3.45;0.13;;;;;;;7.37;66.81;100785.59;4966314;28;20050;-65
2023/01/04 09:55:08;;;;;;;0.40;0.10;;;;;;;7.35;66.91;100790.81;4959298;28;20042;-65
2023/01/04 09:57:47;;;;;;;0.13;0.08;;;;;;;7.09;67.75;100786.34;4962280;28;20027;-65
2023/01/04 10:00:18;;;;;;;0.47;0.10;;;;;;;7.84;65.41;100779.03;4961009;28;20050;-65
2023/01/04 10:02:55;;;;;;;3.50;0.20;;;;;;;7.53;66.39;100784.25;4960468;28;20759;-66
2023/01/04 10:05:25;;;;;;;0.47;0.13;;;;;;;7.64;66.14;100786.56;4958971;28;20495;-66
2023/01/04 10:07:50;;;;;;;0.40;0.10;;;;;;;7.06;67.48;100774.25;4961573;28;20041;-65
2023/01/04 10:10:20;;;;;;;0.77;0.10;;;;;;;7.66;65.74;100759.59;4960949;28;20039;-65
2023/01/04 10:13:04;;;;;;;0.50;0.10;;;;;;;7.25;67.64;100781.59;4960625;28;20049;-65
2023/01/04 10:15:38;;;;;;;0.38;0.10;;;;;;;7.45;66.69;100786.22;4973072;28;20043;-64
2023/01/04 10:18:13;;;;;;;0.38;0.10;;;;;;;7.97;64.93;100782.13;4965757;28;20560;-64
2023/01/04 10:21:00;;;;;;;0.10;0.10;;;;;;;7.86;65.51;100781.59;4962017;28;20808;-66
2023/01/04 10:23:38;;;;;;;0.20;0.10;;;;;;;7.75;65.84;100784.50;4962035;28;20035;-65
2023/01/04 10:26:16;;;;;;;2.70;0.10;;;;;;;7.58;66.64;100790.22;4963368;28;20137;-65
2023/01/04 10:29:14;;;;;;;1.88;0.10;;;;;;;7.38;66.82;100789.88;4963670;28;20125;-66
2023/01/04 10:32:09;;;;;;;0.22;0.10;;;;;;;7.33;67.24;100790.00;4959339;28;20313;-66
2023/01/04 10:34:46;;;;;;;0.50;0.10;;;;;;;7.43;66.79;100782.81;4959728;28;20077;-64
2023/01/04 10:37:28;;;;;;;2.53;0.20;;;;;;;7.70;65.82;100771.63;4964108;28;20754;-65
2023/01/04 10:39:55;;;;;;;0.43;0.10;;;;;;;7.13;67.46;100777.53;4956899;28;20133;-64
2023/01/04 10:42:40;;;;;;;5.05;0.10;;;;;;;8.04;64.43;100778.41;4965953;28;20276;-65
2023/01/04 10:45:32;;;;;;;0.90;0.30;;;;;;;7.73;65.99;100776.75;4965072;28;20035;-66
2023/01/04 10:48:12;;;;;;;0.60;0.20;;;;;;;7.36;66.91;100776.09;4977736;28;20034;-65
2023/01/04 10:50:43;;;;;;;1.42;0.40;;;;;;;7.69;65.34;100769.06;4961732;28;20758;-65
2023/01/04 10:53:12;;;;;;;3.08;0.77;;;;;;;7.66;65.86;100764.81;4962844;28;20121;-65
2023/01/04 10:55:52;;;;;;;2.35;0.95;;;;;;;7.83;64.92;100776.50;4958390;28;20293;-66
2023/01/04 10:58:25;;;;;;;2.95;0.35;;;;;;;8.11;64.30;100774.75;4961406;28;20734;-65
2023/01/04 11:00:59;;;;;;;3.83;0.50;;;;;;;8.30;63.71;100759.38;4967331;28;20097;-64
2023/01/04 11:03:35;;;;;;;1.33;0.57;;;;;;;8.11;64.31;100768.66;4961385;28;20037;-65
2023/01/04 11:06:17;;;;;;;3.22;1.00;;;;;;;7.98;64.69;100764.75;4962912;28;20614;-65
2023/01/04 11:08:55;;;;;;;2.88;1.27;;;;;;;7.96;64.67;100759.59;4963685;28;20157;-64
2023/01/04 11:11:42;;;;;;;4.60;0.93;;;;;;;8.19;64.21;100752.81;4976043;28;20042;-65
2023/01/04 11:14:10;;;;;;;5.15;0.52;;;;;;;8.37;63.33;100757.44;4962247;28;20048;-65
2023/01/04 11:16:38;;;;;;;7.20;0.77;;;;;;;8.70;62.16;100742.44;4962956;28;20109;-64
2023/01/04 11:19:06;;;;;;;7.13;1.00;;;;;;;7.83;64.88;100737.47;4963744;28;20042;-65
2023/01/04 11:21:39;;;;;;;9.70;0.57;;;;;;;8.01;64.44;100743.84;4961344;28;20364;-63
2023/01/04 11:24:07;;;;;;;12.27;0.75;;;;;;;8.34;63.21;100734.09;4961249;28;20493;-63
2023/01/04 11:26:38;;;;;;;7.00;0.50;;;;;;;7.88;63.87;100730.34;4983317;28;20721;-63
2023/01/04 11:29:26;;;;;;;10.95;0.95;;;;;;;8.11;63.69;100740.03;4965517;28;20065;-63
2023/01/04 11:31:56;;;;;;;10.32;0.65;;;;;;;8.69;62.18;100732.03;4961128;28;20045;-63
2023/01/04 11:34:44;;;;;;;6.82;0.63;;;;;;;8.52;62.34;100736.09;4976083;28;20046;-64
2023/01/04 11:37:46;;;;;;;5.53;0.85;;;;;;;9.21;60.36;100739.81;4962197;28;20039;-64
2023/01/04 11:40:15;;;;;;;7.60;0.40;;;;;;;8.90;60.88;100738.31;4962536;28;20774;-64
2023/01/04 11:42:41;;;;;;;15.55;1.83;;;;;;;8.60;61.80;100732.38;4959763;28;20034;-64
2023/01/04 11:45:17;;;;;;;6.75;0.63;;;;;;;8.60;62.18;100743.63;4961672;28;20053;-63
2023/01/04 11:47:54;;;;;;;9.70;1.30;;;;;;;8.63;61.82;100735.72;4964065;28;20037;-64
2023/01/04 11:50:39;;;;;;;5.32;0.40;;;;;;;8.83;61.38;100729.88;4959061;28;20116;-64
2023/01/04 11:53:35;;;;;;;7.82;1.60;;;;;;;8.73;61.33;100728.47;4959921;28;20498;-64
2023/01/04 11:56:10;;;;;;;6.00;0.68;;;;;;;8.55;61.84;100725.56;4958634;28;20089;-64
2023/01/04 11:58:35;;;;;;;3.35;0.68;;;;;;;8.75;61.49;100717.09;4961809;28;20046;-64
2023/01/04 12:01:01;;;;;;;13.07;0.77;;;;;;;8.85;61.08;100722.84;4959666;28;20089;-64
2023/01/04 12:03:34;;;;;;;9.82;1.35;;;;;;;9.06;60.48;100723.81;4959376;28;20586;-64
2023/01/04 12:06:00;;;;;;;15.98;1.40;;;;;;;8.75;61.04;100716.25;4961011;28;20054;-63
2023/01/04 12:08:31;;;;;;;10.00;1.45;;;;;;;8.66;61.82;100726.94;4959091;28;20038;-64
2023/01/04 12:10:58;;;;;;;10.68;0.98;;;;;;;8.93;60.99;100728.63;4957379;28;20134;-64
2023/01/04 12:13:23;;;;;;;20.55;1.65;;;;;;;8.51;61.90;100710.06;4959706;28;20061;-64
2023/01/04 12:15:52;;;;;;;15.23;1.27;;;;;;;8.93;60.30;100686.91;4957958;28;20042;-65
2023/01/04 12:18:28;;;;;;;13.18;1.15;;;;;;;8.61;61.31;100708.03;4959539;28;20038;-64
2023/01/04 12:20:55;;;;;;;14.88;0.95;;;;;;;9.03;59.87;100705.69;4963901;28;20046;-64
2023/01/04 12:23:21;;;;;;;14.88;2.08;;;;;;;9.01;59.86;100685.78;4966859;28;20068;-64
2023/01/04 12:25:50;;;;;;;11.82;0.98;;;;;;;8.94;59.87;100703.41;4958299;28;20310;-65